Terminal Aerodrome Forecast
Issued by NWS

Home | Current Version | Previous Version | Text Only | Print | Product List | Glossary On
Versions: 1 2 3 4 5 6 7 8 9 10 11 12 13 14 15 16 17 18 19 20 21 22 23 24 25 26 27 28 29 30 31 32
000
FTUS41 KCTP 242156 AAB
TAFBFD
TAF AMD
KBFD 242156Z 2422/2518 30008KT 3/4SM -SN BR BKN007 OVC012
     FM250100 30010KT 3SM -SHSN OVC005
     FM250900 28007KT 4SM BR OVC001
     FM251700 25006KT P6SM SCT250=

USA.gov is the U.S. government's official web portal to all federal, state and local government web resources and services.